Stony Plain, Canada
Current Conditions -  °F | °C
As of 3:00 PM on Wednesday 22 Oct 2014 (Local Time) from CZVL Reporting Station
Overcast Overcast  
Wind Chill: 61°   Ceiling: 21000
Heat Index: 61°   Visibility: 9mi
Dew Point: 30°   Wind: 17mph
Humidity: 31%   Direction: 170°S
Pressure: 29.57"   Gusts: NA
Location:  53.53°N, 114.01°W
Report Text: CZVL 222100Z AUTO 17015KT 9SM BKN210 BKN230 OVC250 16/M01 A2957 RMK SLP028 DENSITY ALT 3200FT
Loading
Personal Weather Stations






























Interactive Weather Map New forecast layout! Learn more

10-Day Weather Forecast

Advertisements
Track Severe Weather on mobile